PHKAY ESUT-EN08

Flight info

Callsign PHKAY
Flight time N/A
Altitude 5500
Route ENHT
Aircraft BE36/L-VGDW/C

Departure

Time 2026-04-22 18:07
Airport Hemavan Airport (ESUT)

Arrival

Time N/A
Airport EN08
Time Latitude Longitude Altitude Speed Heading
2026-04-22 18:00 65.81200 15.08098 1503 ft 0 kts 337°
2026-04-22 18:04 65.81204 15.08048 1503 ft 7 kts 264°
2026-04-22 18:04 65.81186 15.07914 1500 ft 10 kts 241°
2026-04-22 18:04 65.81172 15.07850 1499 ft 0 kts 242°
2026-04-22 18:04 65.81171 15.07844 1499 ft 5 kts 242°
2026-04-22 18:05 65.81108 15.07645 1499 ft 3 kts 159°
2026-04-22 18:05 65.81100 15.07654 1499 ft 0 kts 153°
2026-04-22 18:05 65.81100 15.07655 1499 ft 2 kts 153°
2026-04-22 18:06 65.80917 15.07886 1500 ft 60 kts 152°
2026-04-22 18:06 65.80401 15.08536 1516 ft 101 kts 153°
2026-04-22 18:06 65.79739 15.09378 1699 ft 108 kts 151°
2026-04-22 18:06 65.79107 15.10171 2027 ft 93 kts 153°
2026-04-22 18:07 65.78533 15.10871 2270 ft 89 kts 153°
2026-04-22 18:07 65.77961 15.11584 2483 ft 100 kts 153°
2026-04-22 18:07 65.77245 15.12477 2542 ft 128 kts 153°
2026-04-22 18:07 65.76365 15.13572 2551 ft 150 kts 153°
2026-04-22 18:08 65.75371 15.14807 2544 ft 158 kts 153°
2026-04-22 18:08 65.74462 15.16289 2529 ft 161 kts 128°
2026-04-22 18:08 65.73995 15.18815 2530 ft 162 kts 100°
2026-04-22 18:08 65.74103 15.21632 2540 ft 164 kts 79°
2026-04-22 18:09 65.74330 15.24422 2541 ft 167 kts 78°
2026-04-22 18:09 65.74570 15.27249 2641 ft 164 kts 78°
2026-04-22 18:09 65.74796 15.29914 2760 ft 157 kts 78°
2026-04-22 18:09 65.75017 15.32520 2891 ft 153 kts 78°
2026-04-22 18:10 65.75467 15.34778 3130 ft 144 kts 41°
2026-04-22 18:10 65.76381 15.35601 3377 ft 137 kts
2026-04-22 18:10 65.77345 15.35643 3492 ft 142 kts 353°
2026-04-22 18:10 65.78370 15.35275 3536 ft 149 kts 351°
2026-04-22 18:11 65.79400 15.34898 3664 ft 148 kts 354°
2026-04-22 18:11 65.80444 15.34736 3791 ft 148 kts 356°
2026-04-22 18:11 65.81473 15.34593 3916 ft 148 kts 356°
2026-04-22 18:11 65.82509 15.34451 4042 ft 148 kts 356°
2026-04-22 18:12 65.83425 15.34325 4154 ft 148 kts 356°
2026-04-22 18:12 65.84075 15.34236 4232 ft 148 kts 356°
2026-04-22 18:12 65.84769 15.34141 4316 ft 148 kts 356°
2026-04-22 18:12 65.86089 15.33394 4470 ft 149 kts 324°
2026-04-22 18:13 65.86762 15.31444 4507 ft 154 kts 304°
2026-04-22 18:13 65.87261 15.29101 4511 ft 158 kts 292°
2026-04-22 18:13 65.87699 15.26536 4511 ft 162 kts 292°
2026-04-22 18:13 65.88131 15.23961 4510 ft 164 kts 292°
2026-04-22 18:14 65.88569 15.21348 4509 ft 165 kts 292°
2026-04-22 18:14 65.88921 15.18667 4494 ft 166 kts 272°
2026-04-22 18:14 65.88624 15.15980 4510 ft 166 kts 248°
2026-04-22 18:14 65.88056 15.13461 4513 ft 166 kts 227°
2026-04-22 18:15 65.87160 15.11761 4472 ft 168 kts 215°
2026-04-22 18:15 65.86294 15.09685 4069 ft 181 kts 232°
2026-04-22 18:15 65.85686 15.07141 3525 ft 171 kts 248°
2026-04-22 18:15 65.85219 15.04859 3109 ft 139 kts 230°
2026-04-22 18:16 65.84370 15.03919 2694 ft 134 kts 180°
2026-04-22 18:16 65.83491 15.04597 2318 ft 133 kts 153°
2026-04-22 18:16 65.82697 15.05610 2110 ft 123 kts 153°
2026-04-22 18:16 65.81985 15.06541 1860 ft 105 kts 150°
2026-04-22 18:17 65.81367 15.07311 1626 ft 103 kts 152°
2026-04-22 18:17 65.80787 15.08050 1503 ft 80 kts 154°
2026-04-22 18:17 65.80248 15.08732 1500 ft 101 kts 152°
2026-04-22 18:17 65.79591 15.09567 1634 ft 104 kts 151°
2026-04-22 18:18 65.78941 15.09929 1900 ft 95 kts 204°
2026-04-22 18:18 65.78787 15.08504 2047 ft 101 kts 296°
2026-04-22 18:18 65.79341 15.07308 2189 ft 115 kts 323°
2026-04-22 18:18 65.79981 15.06043 2418 ft 115 kts 317°
2026-04-22 18:19 65.80484 15.04608 2681 ft 115 kts 302°
2026-04-22 18:19 65.80844 15.02806 2829 ft 123 kts 293°
2026-04-22 18:19 65.81270 15.00660 2788 ft 149 kts 296°
2026-04-22 18:19 65.81754 14.98249 2793 ft 163 kts 296°
2026-04-22 18:20 65.82267 14.95692 2791 ft 171 kts 296°
2026-04-22 18:20 65.82798 14.93044 2789 ft 175 kts 296°
2026-04-22 18:20 65.83341 14.90338 2788 ft 177 kts 296°
2026-04-22 18:20 65.83764 14.87470 2788 ft 179 kts 282°
2026-04-22 18:21 65.84004 14.84456 2902 ft 174 kts 277°
2026-04-22 18:21 65.83946 14.81500 3014 ft 171 kts 256°
2026-04-22 18:21 65.83478 14.78812 3145 ft 169 kts 245°
2026-04-22 18:21 65.82983 14.76226 3269 ft 168 kts 245°
2026-04-22 18:22 65.82472 14.73586 3396 ft 168 kts 245°
2026-04-22 18:22 65.81944 14.71007 3522 ft 167 kts 240°
2026-04-22 18:22 65.81357 14.68541 3648 ft 167 kts 240°
2026-04-22 18:22 65.80759 14.66053 3775 ft 167 kts 240°
2026-04-22 18:23 65.80174 14.63618 3899 ft 167 kts 240°
2026-04-22 18:23 65.79644 14.61023 4009 ft 168 kts 257°
2026-04-22 18:23 65.79578 14.58150 4142 ft 168 kts 271°
2026-04-22 18:24 65.79657 14.52443 4393 ft 168 kts 272°
2026-04-22 18:24 65.79701 14.49556 4520 ft 168 kts 272°
2026-04-22 18:24 65.79787 14.43833 4768 ft 169 kts 272°
2026-04-22 18:25 65.79784 14.40905 4790 ft 174 kts 259°
2026-04-22 18:25 65.79060 14.38510 4801 ft 177 kts 212°
2026-04-22 18:25 65.77852 14.37926 4800 ft 180 kts 173°
2026-04-22 18:26 65.75435 14.39806 4810 ft 182 kts 159°
2026-04-22 18:26 65.74250 14.40922 4809 ft 183 kts 159°
2026-04-22 18:26 65.73035 14.42069 4809 ft 183 kts 159°
2026-04-22 18:26 65.71802 14.43231 4809 ft 183 kts 159°
2026-04-22 18:27 65.70579 14.44314 4796 ft 184 kts 167°
2026-04-22 18:27 65.69341 14.43604 4793 ft 184 kts 215°
2026-04-22 18:27 65.68668 14.41018 4793 ft 183 kts 259°
2026-04-22 18:27 65.68796 14.37827 4808 ft 183 kts 284°
2026-04-22 18:28 65.69003 14.34730 4802 ft 169 kts 274°
2026-04-22 18:28 65.69092 14.31090 4784 ft 150 kts 261°
2026-04-22 18:28 65.68595 14.28997 4801 ft 137 kts 232°
2026-04-22 18:28 65.68128 14.27112 4762 ft 123 kts 240°
2026-04-22 18:29 65.67841 14.25182 4619 ft 116 kts 264°
2026-04-22 18:29 65.67886 14.23221 4482 ft 109 kts 279°
2026-04-22 18:29 65.68072 14.21455 4349 ft 105 kts 285°
2026-04-22 18:29 65.68266 14.19817 4214 ft 98 kts 286°
2026-04-22 18:30 65.68454 14.18245 4077 ft 93 kts 286°
2026-04-22 18:30 65.68309 14.15022 3851 ft 114 kts 225°
2026-04-22 18:30 65.67591 14.13971 3741 ft 123 kts 206°
2026-04-22 18:31 65.66785 14.13052 3625 ft 131 kts 205°
2026-04-22 18:31 65.65937 14.12101 3506 ft 136 kts 204°
2026-04-22 18:31 65.65040 14.11097 3385 ft 143 kts 204°
2026-04-22 18:31 65.64098 14.10043 3265 ft 149 kts 205°
2026-04-22 18:32 65.63100 14.08928 3140 ft 155 kts 205°
2026-04-22 18:32 65.62072 14.07779 3016 ft 159 kts 205°
2026-04-22 18:32 65.61091 14.06635 2788 ft 146 kts 208°
2026-04-22 18:32 65.60269 14.05416 2291 ft 125 kts 212°
2026-04-22 18:33 65.59719 14.03970 1790 ft 114 kts 236°
2026-04-22 18:33 65.59467 14.02242 1367 ft 106 kts 264°
2026-04-22 18:33 65.59460 14.00495 1041 ft 99 kts 269°
2026-04-22 18:33 65.59465 13.98854 731 ft 89 kts 270°
2026-04-22 18:34 65.59485 13.97306 808 ft 96 kts 270°
2026-04-22 18:34 65.59320 13.95759 1014 ft 100 kts 238°
2026-04-22 18:34 65.58926 13.94355 1301 ft 100 kts 236°
2026-04-22 18:34 65.58536 13.92868 1495 ft 111 kts 236°
2026-04-22 18:35 65.58076 13.91130 1525 ft 129 kts 237°
2026-04-22 18:35 65.57526 13.89058 1517 ft 151 kts 237°
2026-04-22 18:35 65.56911 13.86750 1523 ft 163 kts 237°
2026-04-22 18:35 65.56277 13.84369 1521 ft 170 kts 237°
2026-04-22 18:36 65.55612 13.81875 1519 ft 174 kts 237°
2026-04-22 18:36 65.54930 13.79317 1522 ft 176 kts 237°
2026-04-22 18:36 65.54240 13.76732 1656 ft 171 kts 237°
2026-04-22 18:36 65.53592 13.74308 1780 ft 168 kts 237°
2026-04-22 18:37 65.52910 13.71925 1895 ft 168 kts 225°
2026-04-22 18:37 65.51828 13.70950 2011 ft 167 kts 180°
2026-04-22 18:37 65.50671 13.71168 2141 ft 166 kts 174°
2026-04-22 18:37 65.49490 13.71468 2268 ft 166 kts 176°
2026-04-22 18:38 65.48309 13.71190 2393 ft 166 kts 191°
2026-04-22 18:38 65.47173 13.70461 2488 ft 164 kts 196°
2026-04-22 18:38 65.46083 13.69690 2505 ft 162 kts 197°
2026-04-22 18:39 65.43881 13.68081 2508 ft 162 kts 198°
2026-04-22 18:39 65.42802 13.67219 2509 ft 162 kts 198°
2026-04-22 18:39 65.41740 13.66368 2509 ft 162 kts 199°
2026-04-22 18:39 65.40655 13.65453 2509 ft 162 kts 201°
2026-04-22 18:40 65.39591 13.64454 2509 ft 163 kts 201°
2026-04-22 18:40 65.38538 13.63461 2509 ft 164 kts 201°
2026-04-22 18:40 65.37446 13.62435 2512 ft 171 kts 201°
2026-04-22 18:40 65.36337 13.61282 2511 ft 175 kts 204°
2026-04-22 18:41 65.35212 13.60061 2510 ft 177 kts 205°
2026-04-22 18:41 65.34074 13.58823 2509 ft 179 kts 205°
2026-04-22 18:41 65.32931 13.57580 2509 ft 179 kts 205°
2026-04-22 18:41 65.31790 13.56341 2509 ft 180 kts 205°
2026-04-22 18:42 65.30643 13.55096 2509 ft 180 kts 205°
2026-04-22 18:42 65.29504 13.53860 2509 ft 180 kts 205°
2026-04-22 18:42 65.28346 13.52605 2509 ft 180 kts 205°
2026-04-22 18:42 65.27190 13.51353 2509 ft 180 kts 205°
2026-04-22 18:43 65.26041 13.50111 2509 ft 180 kts 205°
2026-04-22 18:43 65.24902 13.48879 2509 ft 180 kts 205°
2026-04-22 18:43 65.23760 13.47646 2509 ft 180 kts 205°
2026-04-22 18:43 65.22608 13.46402 2509 ft 180 kts 205°
2026-04-22 18:44 65.21975 13.45719 2509 ft 180 kts 205°
2026-04-22 18:44 65.20912 13.44574 2508 ft 180 kts 205°
2026-04-22 18:44 65.19778 13.43353 2509 ft 180 kts 205°
2026-04-22 18:44 65.18610 13.42095 2509 ft 180 kts 205°
2026-04-22 18:45 65.17484 13.40884 2543 ft 178 kts 205°
2026-04-22 18:45 65.16373 13.39545 2661 ft 173 kts 215°
2026-04-22 18:45 65.15408 13.37886 2785 ft 170 kts 216°
2026-04-22 18:45 65.14446 13.36211 2910 ft 169 kts 217°
2026-04-22 18:46 65.13405 13.34675 2996 ft 170 kts 204°
2026-04-22 18:46 65.12247 13.33554 3009 ft 174 kts 201°
2026-04-22 18:46 65.11105 13.32492 3010 ft 177 kts 201°
2026-04-22 18:46 65.09930 13.31407 3010 ft 179 kts 201°
2026-04-22 18:47 65.08772 13.30339 3009 ft 180 kts 201°
2026-04-22 18:47 65.07593 13.29252 3009 ft 180 kts 201°
2026-04-22 18:47 65.06409 13.28163 3009 ft 180 kts 201°
2026-04-22 18:47 65.05244 13.27091 3009 ft 181 kts 201°
2026-04-22 18:48 65.04061 13.26003 3009 ft 181 kts 201°
2026-04-22 18:48 65.02891 13.24928 3009 ft 181 kts 201°
2026-04-22 18:48 65.01693 13.23828 3009 ft 181 kts 201°
2026-04-22 18:48 65.00526 13.22758 3009 ft 181 kts 201°
2026-04-22 18:49 64.99326 13.21658 3009 ft 181 kts 201°
2026-04-22 18:49 64.98145 13.20577 3009 ft 181 kts 201°
2026-04-22 18:49 64.96958 13.19491 3009 ft 181 kts 201°
2026-04-22 18:49 64.95776 13.18410 3009 ft 181 kts 201°
2026-04-22 18:50 64.94531 13.17750 3010 ft 181 kts 186°
2026-04-22 18:50 64.93279 13.17412 3009 ft 181 kts 186°
2026-04-22 18:50 64.92011 13.17013 3007 ft 181 kts 191°
2026-04-22 18:50 64.90769 13.16393 3009 ft 181 kts 192°
2026-04-22 18:51 64.89355 13.15131 3007 ft 181 kts 203°
2026-04-22 18:51 64.87889 13.13609 3009 ft 181 kts 204°
2026-04-22 18:51 64.86779 13.12201 2996 ft 181 kts 220°
2026-04-22 18:51 64.85926 13.10209 3003 ft 181 kts 230°
2026-04-22 18:52 64.85547 13.09018 3008 ft 181 kts 233°
2026-04-22 18:52 64.84806 13.06642 3009 ft 181 kts 234°
2026-04-22 18:52 64.84064 13.04240 3009 ft 181 kts 234°
2026-04-22 18:52 64.83325 13.01846 3009 ft 181 kts 234°
2026-04-22 18:53 64.82575 12.99419 3009 ft 181 kts 234°
2026-04-22 18:53 64.81692 12.97202 3008 ft 181 kts 221°
2026-04-22 18:53 64.80730 12.95278 3009 ft 181 kts 220°
2026-04-22 18:53 64.79757 12.93358 3009 ft 181 kts 220°
2026-04-22 18:54 64.78763 12.91401 3009 ft 181 kts 220°
2026-04-22 18:54 64.77785 12.89479 3009 ft 181 kts 220°
2026-04-22 18:54 64.76810 12.87563 3009 ft 181 kts 220°
2026-04-22 18:54 64.75824 12.85628 3009 ft 181 kts 220°
2026-04-22 18:55 64.74822 12.83663 3009 ft 181 kts 220°
2026-04-22 18:55 64.73846 12.81749 3009 ft 181 kts 220°
2026-04-22 18:55 64.72843 12.79786 3009 ft 181 kts 220°
2026-04-22 18:55 64.71836 12.77814 3009 ft 181 kts 220°
2026-04-22 18:56 64.70856 12.75898 3009 ft 181 kts 220°
2026-04-22 18:56 64.69867 12.73965 3009 ft 181 kts 220°
2026-04-22 18:56 64.68854 12.71985 3008 ft 176 kts 220°
2026-04-22 18:56 64.68004 12.70099 2999 ft 155 kts 226°
2026-04-22 18:57 64.67275 12.68357 2999 ft 137 kts 226°
2026-04-22 18:57 64.66624 12.66828 2999 ft 123 kts 224°
2026-04-22 18:57 64.66024 12.65485 3001 ft 114 kts 224°
2026-04-22 18:57 64.65469 12.64246 3002 ft 107 kts 224°
2026-04-22 18:58 64.64936 12.63059 3003 ft 100 kts 224°
2026-04-22 18:58 64.64445 12.61963 3003 ft 94 kts 224°
2026-04-22 18:58 64.63982 12.60935 3004 ft 90 kts 224°
2026-04-22 18:58 64.63539 12.59949 3003 ft 85 kts 224°
2026-04-22 18:59 64.63077 12.58924 3002 ft 97 kts 224°
2026-04-22 18:59 64.62534 12.57715 2899 ft 115 kts 224°
2026-04-22 18:59 64.61847 12.56469 2793 ft 131 kts 214°
2026-04-22 18:59 64.61043 12.55207 2678 ft 141 kts 214°
2026-04-22 19:00 64.60194 12.53887 2559 ft 148 kts 214°
2026-04-22 19:00 64.59284 12.52473 2435 ft 155 kts 214°
2026-04-22 19:00 64.58363 12.51041 2310 ft 156 kts 214°
2026-04-22 19:00 64.57410 12.49691 2185 ft 158 kts 211°
2026-04-22 19:01 64.56449 12.48361 2059 ft 159 kts 211°
2026-04-22 19:01 64.55505 12.47056 2012 ft 150 kts 211°
2026-04-22 19:01 64.54620 12.45836 2007 ft 144 kts 211°
2026-04-22 19:01 64.53765 12.44658 2006 ft 141 kts 211°
2026-04-22 19:02 64.52927 12.43500 2006 ft 137 kts 212°
2026-04-22 19:02 64.52209 12.42005 2012 ft 142 kts 225°
2026-04-22 19:02 64.51484 12.40297 2013 ft 150 kts 226°
2026-04-22 19:02 64.50744 12.38539 2011 ft 154 kts 226°
2026-04-22 19:03 64.49975 12.36712 2011 ft 158 kts 226°
2026-04-22 19:03 64.49188 12.34846 2010 ft 160 kts 225°
2026-04-22 19:03 64.48189 12.32589 1999 ft 161 kts 214°
2026-04-22 19:03 64.47134 12.31708 2010 ft 161 kts 195°
2026-04-22 19:04 64.46058 12.31025 2009 ft 162 kts 194°
2026-04-22 19:04 64.44961 12.30373 2005 ft 162 kts 189°
2026-04-22 19:04 64.43832 12.30663 1872 ft 159 kts 160°
2026-04-22 19:04 64.42900 12.31678 1534 ft 134 kts 152°
2026-04-22 19:05 64.42156 12.32458 1402 ft 100 kts 156°
2026-04-22 19:05 64.41608 12.32886 1241 ft 74 kts 159°
2026-04-22 19:05 64.41134 12.33279 1001 ft 78 kts 158°
2026-04-22 19:05 64.40932 12.33438 913 ft 87 kts 160°
2026-04-22 19:06 64.40398 12.34036 874 ft 83 kts 144°
2026-04-22 19:06 64.39947 12.34897 897 ft 83 kts 136°
2026-04-22 19:06 64.39506 12.35785 966 ft 82 kts 139°
2026-04-22 19:07 64.38844 12.36872 1092 ft 80 kts 153°
2026-04-22 19:07 64.38344 12.37427 1152 ft 79 kts 159°
2026-04-22 19:07 64.37915 12.37125 1134 ft 67 kts 257°
2026-04-22 19:07 64.38131 12.36184 914 ft 67 kts 303°
2026-04-22 19:08 64.38422 12.35383 749 ft 64 kts 317°
2026-04-22 19:08 64.38805 12.34824 583 ft 64 kts 331°
2026-04-22 19:08 64.39209 12.34402 439 ft 65 kts 334°
2026-04-22 19:08 64.39586 12.34033 423 ft 45 kts 336°
2026-04-22 19:09 64.39685 12.33937 420 ft 0 kts 298°
2026-04-22 19:09 64.39685 12.33932 420 ft 2 kts 263°
2026-04-22 19:09 64.39673 12.33884 423 ft 2 kts 259°
2026-04-22 19:09 64.39681 12.33800 427 ft 4 kts 328°
2026-04-22 19:10 64.39686 12.33798 427 ft 0 kts
2026-04-22 19:10 64.39689 12.33798 427 ft 0 kts 12°
2026-04-22 19:11 64.39693 12.33803 427 ft 0 kts 55°
2026-04-22 19:11 64.39694 12.33810 426 ft 0 kts 63°